createdAt,value
2018-01-03T00:00:39.520Z,89
2018-01-03T00:01:39.280Z,88.9
2018-01-03T00:02:39.260Z,88.9
2018-01-03T00:03:39.497Z,89.67
2018-01-03T00:04:39.487Z,89.19
2018-01-03T00:05:39.230Z,89.38
2018-01-03T00:06:39.474Z,89.19
2018-01-03T00:07:39.222Z,89
2018-01-03T00:08:39.452Z,89.38
2018-01-03T00:09:39.469Z,89.86
2018-01-03T00:10:39.204Z,89.38
2018-01-03T00:11:39.209Z,89.09
2018-01-03T00:12:39.428Z,89
2018-01-03T00:13:39.421Z,89.67
2018-01-03T00:14:39.424Z,89.19
2018-01-03T00:15:39.176Z,89.57
2018-01-03T00:16:39.131Z,89.19
2018-01-03T00:17:39.143Z,89.86
2018-01-03T00:18:39.378Z,89.28
2018-01-03T00:19:39.384Z,89.95
2018-01-03T00:20:39.135Z,89.28
2018-01-03T00:21:39.382Z,89.19
2018-01-03T00:22:39.380Z,89.76
2018-01-03T00:23:39.361Z,89.76
2018-01-03T00:24:39.363Z,90.05
2018-01-03T00:25:39.105Z,89.86
2018-01-03T00:26:39.336Z,90.23
2018-01-03T00:27:39.073Z,90.42
2018-01-03T00:28:39.066Z,90.33
2018-01-03T00:29:39.050Z,90.33
2018-01-03T00:30:39.318Z,90.23
2018-01-03T00:31:39.035Z,90.42
2018-01-03T00:32:39.319Z,90.71
2018-01-03T00:33:39.036Z,90.33
2018-01-03T00:34:39.302Z,90.42
2018-01-03T00:35:39.261Z,90.14
2018-01-03T00:36:39.294Z,89.95
2018-01-03T00:37:39.279Z,90.14
2018-01-03T00:38:39.268Z,90.52
2018-01-03T00:39:39.013Z,91.09
2018-01-03T00:40:39.007Z,90.52
2018-01-03T00:41:38.993Z,90.33
2018-01-03T00:42:39.232Z,90.71
2018-01-03T00:43:38.962Z,90.8
2018-01-03T00:44:38.961Z,91.28
2018-01-03T00:45:38.947Z,90.9
2018-01-03T00:46:39.204Z,90.99
2018-01-03T00:47:39.203Z,91.94
2018-01-03T00:48:39.193Z,91.85
2018-01-03T00:49:39.172Z,91.28
2018-01-03T00:50:39.166Z,91.13
2018-01-03T00:51:38.929Z,91.47
2018-01-03T00:52:38.918Z,91.8
2018-01-03T00:53:38.924Z,91.89
2018-01-03T00:54:39.150Z,91.61
2018-01-03T00:55:39.138Z,91.71
2018-01-03T00:56:39.128Z,92.66
2018-01-03T00:57:39.122Z,92.08
2018-01-03T00:58:39.117Z,92.42
2018-01-03T00:59:38.863Z,92.8
2018-01-03T01:00:39.101Z,92.94
2018-01-03T01:01:39.102Z,93.41
2018-01-03T01:02:39.107Z,93.04
2018-01-03T01:03:39.095Z,93.56
2018-01-03T01:04:39.084Z,93.23
2018-01-03T01:05:39.072Z,93.6
2018-01-03T01:06:39.076Z,93.32
2018-01-03T01:07:39.065Z,93.27
2018-01-03T01:08:38.812Z,93.79
2018-01-03T01:09:38.808Z,93.6
2018-01-03T01:10:39.047Z,93.18
2018-01-03T01:11:39.041Z,94.18
2018-01-03T01:12:39.038Z,94.13
2018-01-03T01:13:39.028Z,94.89
2018-01-03T01:14:39.019Z,94.37
2018-01-03T01:15:39.017Z,94.56
2018-01-03T01:16:39.010Z,94.84
2018-01-03T01:17:39.004Z,94.93
2018-01-03T01:18:39.006Z,95.22
2018-01-03T01:19:38.989Z,94.84
2018-01-03T01:20:38.983Z,94.84
2018-01-03T01:21:38.981Z,95.03
2018-01-03T01:22:38.970Z,94.84
2018-01-03T01:23:38.715Z,94.84
2018-01-03T01:24:38.705Z,95.03
2018-01-03T01:25:38.951Z,95.03
2018-01-03T01:26:38.946Z,94.56
2018-01-03T01:27:38.689Z,94.84
2018-01-03T01:28:38.694Z,94.93
2018-01-03T01:29:38.937Z,94.93
2018-01-03T01:30:38.937Z,95.32
2018-01-03T01:31:38.919Z,95.22
2018-01-03T01:32:38.918Z,95.98
2018-01-03T01:33:38.907Z,95.89
2018-01-03T01:34:38.896Z,95.32
2018-01-03T01:35:38.895Z,95.12
2018-01-03T01:36:38.886Z,95.79
2018-01-03T01:37:38.885Z,96.08
2018-01-03T01:38:38.625Z,95.79
2018-01-03T01:39:38.929Z,96.17
2018-01-03T01:40:38.892Z,96.17
2018-01-03T01:41:38.610Z,96.26
2018-01-03T01:42:38.852Z,95.98
2018-01-03T01:43:38.843Z,95.6
2018-01-03T01:44:38.588Z,96.17
2018-01-03T01:45:38.586Z,95.6
2018-01-03T01:46:38.577Z,95.7
2018-01-03T01:47:38.821Z,96.36
2018-01-03T01:48:38.567Z,96.26
2018-01-03T01:49:38.817Z,96.65
2018-01-03T01:50:38.549Z,96.36
2018-01-03T01:51:38.797Z,96.65
2018-01-03T01:52:38.798Z,97.03
2018-01-03T01:53:38.789Z,97.6
2018-01-03T01:54:38.778Z,97.12
2018-01-03T01:55:38.560Z,97.03
2018-01-03T01:56:38.598Z,97.41
2018-01-03T01:57:38.509Z,96.93
2018-01-03T01:58:38.752Z,97.31
2018-01-03T01:59:38.747Z,97.31
2018-01-03T02:00:38.496Z,97.5
2018-01-03T02:01:38.739Z,96.65
2018-01-03T02:02:38.487Z,97.22
2018-01-03T02:03:38.472Z,97.22
2018-01-03T02:04:38.472Z,97.31
2018-01-03T02:05:38.716Z,97.31
2018-01-03T02:06:38.463Z,97.41
2018-01-03T02:07:38.448Z,97.6
2018-01-03T02:08:38.449Z,97.6
2018-01-03T02:09:38.444Z,97.6
2018-01-03T02:10:38.431Z,97.69
2018-01-03T02:11:38.684Z,97.97
2018-01-03T02:12:38.669Z,97.69
2018-01-03T02:13:38.668Z,97.69
2018-01-03T02:14:38.406Z,97.97
2018-01-03T02:15:38.653Z,97.69
2018-01-03T02:16:38.652Z,97.69
2018-01-03T02:17:38.389Z,97.88
2018-01-03T02:18:38.641Z,97.64
2018-01-03T02:19:38.643Z,97.64
2018-01-03T02:20:38.630Z,97.88
2018-01-03T02:21:38.374Z,97.88
2018-01-03T02:22:38.369Z,98.22
2018-01-03T02:23:38.358Z,97.83
2018-01-03T02:24:38.404Z,98.03
2018-01-03T02:25:38.410Z,97.93
2018-01-03T02:26:38.590Z,97.83
2018-01-03T02:27:38.330Z,98.12
2018-01-03T02:28:38.378Z,98.03
2018-01-03T02:29:38.322Z,98.03
2018-01-03T02:30:38.575Z,97.74
2018-01-03T02:31:38.569Z,98.03
2018-01-03T02:32:38.309Z,97.83
2018-01-03T02:33:38.551Z,98.22
2018-01-03T02:34:38.541Z,98.5
2018-01-03T02:35:38.285Z,98.12
2018-01-03T02:36:38.534Z,98.5
2018-01-03T02:37:38.280Z,98.6
2018-01-03T02:38:38.525Z,98.79
2018-01-03T02:39:38.514Z,99.74
2018-01-03T02:40:38.510Z,98.88
2018-01-03T02:41:38.256Z,98.41
2018-01-03T02:42:38.499Z,98.41
2018-01-03T02:43:38.242Z,98.41
2018-01-03T02:44:38.487Z,98.31
2018-01-03T02:45:38.482Z,98.79
2018-01-03T02:46:38.480Z,98.79
2018-01-03T02:47:38.219Z,98.88
2018-01-03T02:48:38.468Z,98.88
2018-01-03T02:49:38.458Z,98.88
2018-01-03T02:50:38.205Z,98.69
2018-01-03T02:51:38.197Z,99.45
2018-01-03T02:52:38.449Z,99.45
2018-01-03T02:53:38.447Z,99.07
2018-01-03T02:54:38.447Z,99.26
2018-01-03T02:55:38.176Z,99.36
2018-01-03T02:56:38.427Z,99.55
2018-01-03T02:57:38.424Z,99.45
2018-01-03T02:58:38.410Z,99.07
2018-01-03T02:59:38.406Z,99.36
2018-01-03T03:00:38.417Z,99.45
2018-01-03T03:01:38.396Z,99.45
2018-01-03T03:02:38.400Z,99.64
2018-01-03T03:03:38.148Z,99.45
2018-01-03T03:04:38.382Z,99.07
2018-01-03T03:05:38.373Z,99.26
2018-01-03T03:06:38.429Z,99.55
2018-01-03T03:07:38.359Z,99.45
2018-01-03T03:08:38.365Z,99.74
2018-01-03T03:09:38.095Z,99.55
2018-01-03T03:10:38.344Z,99.45
2018-01-03T03:11:38.091Z,99.64
2018-01-03T03:12:38.336Z,99.36
2018-01-03T03:13:38.329Z,99.45
2018-01-03T03:14:38.323Z,99.36
2018-01-03T03:15:38.322Z,99.99
2018-01-03T03:16:38.062Z,99.88
2018-01-03T03:17:38.307Z,99.99
2018-01-03T03:18:38.311Z,99.93
2018-01-03T03:19:38.044Z,99.99
2018-01-03T03:20:38.295Z,99.99
2018-01-03T03:21:38.296Z,99.79
2018-01-03T03:22:38.029Z,99.98
2018-01-03T03:23:38.276Z,99.99
2018-01-03T03:24:38.019Z,99.99
2018-01-03T03:25:38.268Z,99.99
2018-01-03T03:26:38.013Z,99.98
2018-01-03T03:27:38.259Z,99.99
2018-01-03T03:28:37.999Z,99.99
2018-01-03T03:29:37.991Z,99.99
2018-01-03T03:30:38.244Z,99.99
2018-01-03T03:31:38.238Z,99.99
2018-01-03T03:32:38.225Z,99.98
2018-01-03T03:33:37.973Z,99.79
2018-01-03T03:34:37.972Z,99.88
2018-01-03T03:35:38.211Z,99.5
2018-01-03T03:36:37.952Z,99.6
2018-01-03T03:37:37.947Z,99.69
2018-01-03T03:38:38.198Z,99.6
2018-01-03T03:39:37.936Z,99.6
2018-01-03T03:40:38.184Z,99.88
2018-01-03T03:41:38.178Z,98.98
2018-01-03T03:42:38.173Z,99.08
2018-01-03T03:43:38.176Z,99.08
2018-01-03T03:44:38.166Z,98.5
2018-01-03T03:45:38.156Z,98.03
2018-01-03T03:46:37.902Z,97.93
2018-01-03T03:47:37.974Z,98.13
2018-01-03T03:48:37.891Z,98.6
2018-01-03T03:49:38.136Z,97.93
2018-01-03T03:50:37.882Z,98.6
2018-01-03T03:51:37.875Z,98.41
2018-01-03T03:52:38.122Z,98.32
2018-01-03T03:53:38.123Z,98.03
2018-01-03T03:54:37.874Z,97.55
2018-01-03T03:55:38.107Z,97.46
2018-01-03T03:56:37.874Z,97.74
2018-01-03T03:57:37.857Z,97.93
2018-01-03T03:58:38.097Z,97.74
2018-01-03T03:59:37.836Z,97.17
2018-01-03T04:00:38.081Z,96.98
2018-01-03T04:01:38.082Z,97.74
2018-01-03T04:02:37.822Z,96.89
2018-01-03T04:03:37.818Z,97.08
2018-01-03T04:04:38.064Z,97.08
2018-01-03T04:05:37.821Z,97.46
2018-01-03T04:06:37.802Z,97.74
2018-01-03T04:07:38.049Z,97.74
2018-01-03T04:08:38.054Z,97.55
2018-01-03T04:09:37.798Z,97.65
2018-01-03T04:10:38.037Z,97.65
2018-01-03T04:11:38.030Z,97.65
2018-01-03T04:12:37.779Z,97.65
2018-01-03T04:13:38.028Z,97.74
2018-01-03T04:14:38.018Z,98.03
2018-01-03T04:15:38.063Z,97.93
2018-01-03T04:16:38.007Z,97.93
2018-01-03T04:17:37.750Z,97.55
2018-01-03T04:18:37.997Z,98.03
2018-01-03T04:19:37.741Z,98.03
2018-01-03T04:20:37.989Z,97.84
2018-01-03T04:21:37.983Z,97.7
2018-01-03T04:22:37.729Z,97.99
2018-01-03T04:23:37.974Z,97.7
2018-01-03T04:24:37.718Z,97.31
2018-01-03T04:25:37.713Z,96.36
2018-01-03T04:26:37.961Z,96.55
2018-01-03T04:27:37.709Z,96.65
2018-01-03T04:28:37.952Z,96.65
2018-01-03T04:29:37.946Z,97.31
2018-01-03T04:30:37.944Z,96.27
2018-01-03T04:31:37.936Z,96.65
2018-01-03T04:32:37.935Z,96.46
2018-01-03T04:33:37.928Z,97.13
2018-01-03T04:34:37.926Z,96.84
2018-01-03T04:35:37.918Z,96.46
2018-01-03T04:36:37.915Z,96.46
2018-01-03T04:37:37.915Z,96.46
2018-01-03T04:38:37.908Z,96.46
2018-01-03T04:39:37.648Z,96.27
2018-01-03T04:40:37.897Z,96.17
2018-01-03T04:41:37.898Z,96.36
2018-01-03T04:42:37.891Z,96.65
2018-01-03T04:43:37.890Z,96.46
2018-01-03T04:44:37.894Z,96.65
2018-01-03T04:45:37.881Z,97.22
2018-01-03T04:46:37.892Z,96.27
2018-01-03T04:47:37.614Z,95.7
2018-01-03T04:48:37.612Z,96.27
2018-01-03T04:49:37.855Z,96.65
2018-01-03T04:50:37.599Z,96.75
2018-01-03T04:51:37.845Z,96.7
2018-01-03T04:52:37.593Z,96.51
2018-01-03T04:53:37.841Z,96.89
2018-01-03T04:54:37.837Z,96.89
2018-01-03T04:55:37.586Z,96.41
2018-01-03T04:56:37.837Z,95.36
2018-01-03T04:57:37.569Z,95.75
2018-01-03T04:58:37.828Z,95.27
2018-01-03T04:59:37.813Z,95.17
2018-01-03T05:00:37.556Z,94.89
2018-01-03T05:01:37.803Z,95.17
2018-01-03T05:02:37.801Z,95.17
2018-01-03T05:03:37.795Z,95.08
2018-01-03T05:04:37.791Z,94.7
2018-01-03T05:05:37.790Z,95.08
2018-01-03T05:06:37.790Z,95.17
2018-01-03T05:07:37.791Z,94.89
2018-01-03T05:08:37.524Z,94.79
2018-01-03T05:09:37.777Z,94.89
2018-01-03T05:10:37.520Z,95.03
2018-01-03T05:11:37.771Z,94.89
2018-01-03T05:12:37.763Z,94.93
2018-01-03T05:13:37.510Z,94.74
2018-01-03T05:14:37.756Z,94.65
2018-01-03T05:15:37.503Z,94.08
2018-01-03T05:16:37.513Z,94.93
2018-01-03T05:17:37.744Z,94.37
2018-01-03T05:18:37.739Z,95.03
2018-01-03T05:19:37.739Z,94.27
2018-01-03T05:20:37.739Z,94.08
2018-01-03T05:21:37.728Z,93.98
2018-01-03T05:22:37.472Z,94.56
2018-01-03T05:23:37.722Z,94.27
2018-01-03T05:24:37.472Z,94.93
2018-01-03T05:25:37.473Z,95.17
2018-01-03T05:26:37.711Z,95.79
2018-01-03T05:27:37.704Z,96.56
2018-01-03T05:28:37.703Z,96.84
2018-01-03T05:29:37.452Z,96.65
2018-01-03T05:30:37.707Z,97.51
2018-01-03T05:31:37.438Z,97.89
2018-01-03T05:32:37.692Z,97.7
2018-01-03T05:33:37.690Z,98.56
2018-01-03T05:34:37.690Z,98.85
2018-01-03T05:35:37.679Z,98.46
2018-01-03T05:36:37.674Z,99.41
2018-01-03T05:37:37.668Z,99.6
2018-01-03T05:38:37.669Z,99.89
2018-01-03T05:39:37.668Z,99.99
2018-01-03T05:40:37.672Z,99.99
2018-01-03T05:41:37.654Z,99.99
2018-01-03T05:42:37.400Z,99.99
2018-01-03T05:43:37.646Z,99.99
2018-01-03T05:44:37.642Z,99.99
2018-01-03T05:45:37.388Z,99.99
2018-01-03T05:46:37.392Z,99.99
2018-01-03T05:47:37.381Z,99.99
2018-01-03T05:48:37.629Z,99.99
2018-01-03T05:49:37.625Z,99.99
2018-01-03T05:50:37.377Z,99.99
2018-01-03T05:51:37.618Z,99.99
2018-01-03T05:52:37.362Z,99.99
2018-01-03T05:53:37.617Z,99.99
2018-01-03T05:54:37.358Z,99.99
2018-01-03T05:55:37.602Z,99.99
2018-01-03T05:56:37.621Z,99.99
2018-01-03T05:57:37.598Z,99.99
2018-01-03T05:58:37.602Z,99.99
2018-01-03T05:59:37.593Z,99.99
2018-01-03T06:00:37.588Z,99.99
2018-01-03T06:01:37.585Z,99.99
2018-01-03T06:02:37.580Z,99.99
2018-01-03T06:03:37.591Z,99.99
2018-01-03T06:04:37.586Z,99.99
2018-01-03T06:05:37.573Z,99.99
2018-01-03T06:06:37.320Z,99.99
2018-01-03T06:07:37.558Z,99.99
2018-01-03T06:08:37.309Z,99.99
2018-01-03T06:09:37.555Z,99.99
2018-01-03T06:10:37.551Z,99.99
2018-01-03T06:11:37.546Z,99.99
2018-01-03T06:12:37.292Z,99.99
2018-01-03T06:13:37.544Z,99.99
2018-01-03T06:14:37.286Z,99.99
2018-01-03T06:15:37.534Z,99.99
2018-01-03T06:16:37.277Z,99.99
2018-01-03T06:17:37.278Z,99.99
2018-01-03T06:18:37.529Z,99.99
2018-01-03T06:19:37.522Z,99.99
2018-01-03T06:20:37.521Z,99.99
2018-01-03T06:21:37.521Z,99.99
2018-01-03T06:22:37.522Z,99.99
2018-01-03T06:23:37.509Z,99.99
2018-01-03T06:24:37.522Z,99.99
2018-01-03T06:25:37.250Z,99.99
2018-01-03T06:26:37.500Z,99.99
2018-01-03T06:27:37.239Z,99.99
2018-01-03T06:28:37.497Z,99.99
2018-01-03T06:29:37.490Z,99.99
2018-01-03T06:30:37.480Z,99.99
2018-01-03T06:31:37.225Z,99.99
2018-01-03T06:32:37.486Z,99.99
2018-01-03T06:33:37.219Z,99.99
2018-01-03T06:34:37.479Z,99.99
2018-01-03T06:35:37.214Z,99.99
2018-01-03T06:36:37.469Z,99.99
2018-01-03T06:37:37.212Z,99.99
2018-01-03T06:38:37.455Z,99.99
2018-01-03T06:39:37.203Z,99.99
2018-01-03T06:40:37.206Z,99.99
2018-01-03T06:41:37.194Z,99.99
2018-01-03T06:42:37.445Z,99.99
2018-01-03T06:43:37.440Z,99.99
2018-01-03T06:44:37.186Z,99.99
2018-01-03T06:45:37.184Z,99.99
2018-01-03T06:46:37.425Z,99.99
2018-01-03T06:47:37.429Z,99.99
2018-01-03T06:48:37.422Z,99.99
2018-01-03T06:49:37.419Z,99.99
2018-01-03T06:50:37.420Z,99.99
2018-01-03T06:51:37.164Z,99.99
2018-01-03T06:52:37.165Z,99.99
2018-01-03T06:53:37.415Z,99.99
2018-01-03T06:54:37.413Z,99.99
2018-01-03T06:55:37.447Z,99.99
2018-01-03T06:56:37.430Z,99.99
2018-01-03T06:57:37.408Z,99.99
2018-01-03T06:58:37.399Z,99.99
2018-01-03T06:59:37.386Z,99.99
2018-01-03T07:00:37.402Z,99.99
2018-01-03T07:01:37.172Z,99.99
2018-01-03T07:02:37.377Z,99.99
2018-01-03T07:03:37.376Z,99.99
2018-01-03T07:04:37.120Z,99.99
2018-01-03T07:05:37.372Z,99.99
2018-01-03T07:06:37.371Z,99.99
2018-01-03T07:07:37.114Z,99.99
2018-01-03T07:08:37.369Z,99.99
2018-01-03T07:09:37.364Z,99.99
2018-01-03T07:10:37.356Z,99.99
2018-01-03T07:11:37.099Z,99.99
2018-01-03T07:12:37.097Z,99.61
2018-01-03T07:13:37.348Z,99.99
2018-01-03T07:14:37.343Z,99.04
2018-01-03T07:15:37.345Z,99.32
2018-01-03T07:16:37.336Z,99.9
2018-01-03T07:17:37.339Z,99.8
2018-01-03T07:18:37.077Z,99.32
2018-01-03T07:19:37.074Z,99.42
2018-01-03T07:20:37.072Z,99.85
2018-01-03T07:21:37.323Z,99.99
2018-01-03T07:22:37.321Z,99.99
2018-01-03T07:23:37.063Z,99.57
2018-01-03T07:24:37.317Z,99.28
2018-01-03T07:25:37.310Z,99.99
2018-01-03T07:26:37.307Z,99.99
2018-01-03T07:27:37.054Z,99.99
2018-01-03T07:28:37.052Z,99.99
2018-01-03T07:29:37.057Z,99.99
2018-01-03T07:30:37.054Z,99.99
2018-01-03T07:31:37.316Z,99.99
2018-01-03T07:32:37.041Z,99.99
2018-01-03T07:33:37.295Z,99.99
2018-01-03T07:34:37.288Z,99.99
2018-01-03T07:35:37.033Z,99.99
2018-01-03T07:36:37.278Z,99.99
2018-01-03T07:37:37.279Z,99.99
2018-01-03T07:38:37.273Z,99.99
2018-01-03T07:39:37.267Z,99.99
2018-01-03T07:40:37.268Z,99.99
2018-01-03T07:41:37.259Z,99.99
2018-01-03T07:42:37.007Z,99.99
2018-01-03T07:43:37.003Z,99.99
2018-01-03T07:44:37.008Z,99.99
2018-01-03T07:45:37.241Z,99.99
2018-01-03T07:46:37.240Z,99.99
2018-01-03T07:47:37.235Z,99.99
2018-01-03T07:48:37.266Z,99.99
2018-01-03T07:49:36.970Z,99.99
2018-01-03T07:50:37.220Z,99.99
2018-01-03T07:51:37.214Z,99.99
2018-01-03T07:52:36.951Z,99.99
2018-01-03T07:53:36.946Z,99.99
2018-01-03T07:54:36.942Z,99.99
2018-01-03T07:55:37.185Z,99.99
2018-01-03T07:56:36.927Z,99.99
2018-01-03T07:57:37.174Z,99.99
2018-01-03T07:58:36.916Z,99.99
2018-01-03T07:59:36.913Z,99.99
2018-01-03T08:00:37.051Z,99.99
2018-01-03T08:01:36.901Z,99.99
2018-01-03T08:02:37.143Z,99.99
2018-01-03T08:03:37.145Z,99.99
2018-01-03T08:04:36.882Z,99.99
2018-01-03T08:05:37.126Z,99.99
2018-01-03T08:06:37.119Z,99.99
2018-01-03T08:07:37.113Z,99.99
2018-01-03T08:08:36.870Z,99.99
2018-01-03T08:09:37.120Z,99.99
2018-01-03T08:10:37.099Z,99.99
2018-01-03T08:11:37.088Z,99.99
2018-01-03T08:12:37.091Z,99.99
2018-01-03T08:13:36.830Z,99.99
2018-01-03T08:14:37.071Z,99.99
2018-01-03T08:15:37.071Z,99.99
2018-01-03T08:16:36.810Z,99.99
2018-01-03T08:17:36.808Z,99.99
2018-01-03T08:18:37.058Z,99.99
2018-01-03T08:19:36.788Z,99.99
2018-01-03T08:20:37.035Z,99.99
2018-01-03T08:21:37.028Z,99.99
2018-01-03T08:22:37.024Z,99.99
2018-01-03T08:23:37.030Z,99.99
2018-01-03T08:24:37.014Z,99.99
2018-01-03T08:25:36.756Z,99.99
2018-01-03T08:26:37.016Z,99.99
2018-01-03T08:27:36.738Z,99.99
2018-01-03T08:28:36.781Z,99.99
2018-01-03T08:29:36.769Z,99.99
2018-01-03T08:30:36.989Z,99.99
2018-01-03T08:31:36.966Z,99.99
2018-01-03T08:32:36.960Z,99.99
2018-01-03T08:33:36.705Z,99.99
2018-01-03T08:34:36.956Z,99.99
2018-01-03T08:35:37.018Z,99.99
2018-01-03T08:36:36.938Z,99.99
2018-01-03T08:37:36.684Z,99.99
2018-01-03T08:38:36.925Z,99.99
2018-01-03T08:39:36.669Z,99.99
2018-01-03T08:40:36.933Z,99.99
2018-01-03T08:41:36.908Z,99.99
2018-01-03T08:42:36.901Z,99.99
2018-01-03T08:43:36.651Z,99.99
2018-01-03T08:44:36.890Z,99.99
2018-01-03T08:45:36.888Z,99.99
2018-01-03T08:46:36.880Z,99.99
2018-01-03T08:47:36.871Z,99.99
2018-01-03T08:48:36.871Z,99.99
2018-01-03T08:49:36.860Z,99.99
2018-01-03T08:50:36.858Z,99.99
2018-01-03T08:51:36.852Z,99.99
2018-01-03T08:52:36.842Z,99.99
2018-01-03T08:53:36.590Z,99.99
2018-01-03T08:54:36.834Z,99.99
2018-01-03T08:55:36.829Z,99.99
2018-01-03T08:56:36.824Z,99.99
2018-01-03T08:57:36.813Z,99.99
2018-01-03T08:58:36.805Z,99.99
2018-01-03T08:59:36.551Z,99.99
2018-01-03T09:00:36.550Z,99.99
2018-01-03T09:01:36.797Z,99.99
2018-01-03T09:02:36.533Z,99.99
2018-01-03T09:03:36.540Z,99.99
2018-01-03T09:04:36.530Z,99.99
2018-01-03T09:05:36.772Z,99.99
2018-01-03T09:06:36.764Z,99.99
2018-01-03T09:07:36.762Z,99.99
2018-01-03T09:08:36.503Z,99.99
2018-01-03T09:09:36.749Z,99.99
2018-01-03T09:10:36.741Z,99.99
2018-01-03T09:11:36.488Z,99.99
2018-01-03T09:12:36.734Z,99.99
2018-01-03T09:13:36.483Z,99.99
2018-01-03T09:14:36.485Z,99.99
2018-01-03T09:15:36.719Z,99.99
2018-01-03T09:16:36.713Z,99.99
2018-01-03T09:17:36.448Z,99.99
2018-01-03T09:18:36.446Z,99.99
2018-01-03T09:19:36.689Z,99.99
2018-01-03T09:20:36.687Z,99.99
2018-01-03T09:21:36.677Z,99.99
2018-01-03T09:22:36.673Z,99.99
2018-01-03T09:23:36.676Z,99.99
2018-01-03T09:24:36.410Z,99.99
2018-01-03T09:25:36.681Z,99.99
2018-01-03T09:26:36.401Z,99.99
2018-01-03T09:27:36.394Z,99.99
2018-01-03T09:28:36.641Z,99.99
2018-01-03T09:29:36.637Z,99.99
2018-01-03T09:30:36.628Z,99.99
2018-01-03T09:31:36.374Z,99.99
2018-01-03T09:32:36.619Z,99.99
2018-01-03T09:33:36.617Z,99.99
2018-01-03T09:34:36.616Z,99.99
2018-01-03T09:35:36.604Z,99.99
2018-01-03T09:36:36.596Z,99.99
2018-01-03T09:37:36.591Z,99.99
2018-01-03T09:38:36.594Z,99.99
2018-01-03T09:39:36.582Z,99.99
2018-01-03T09:40:36.575Z,99.99
2018-01-03T09:41:36.324Z,99.99
2018-01-03T09:42:36.320Z,99.99
2018-01-03T09:43:36.571Z,99.99
2018-01-03T09:44:36.326Z,99.99
2018-01-03T09:45:36.297Z,99.99
2018-01-03T09:46:36.297Z,99.99
2018-01-03T09:47:36.544Z,99.99
2018-01-03T09:48:36.284Z,99.99
2018-01-03T09:49:36.275Z,99.99
2018-01-03T09:50:37.071Z,99.99
2018-01-03T09:51:36.535Z,99.99
2018-01-03T09:52:36.513Z,99.99
2018-01-03T09:53:36.270Z,99.99
2018-01-03T09:54:36.510Z,99.99
2018-01-03T09:55:36.490Z,99.99
2018-01-03T09:56:36.483Z,99.99
2018-01-03T09:57:36.227Z,99.99
2018-01-03T09:58:36.472Z,99.99
2018-01-03T09:59:36.216Z,99.99
2018-01-03T10:00:36.464Z,99.99
2018-01-03T10:01:36.454Z,99.99
2018-01-03T10:02:36.454Z,99.99
2018-01-03T10:03:36.458Z,99.99
2018-01-03T10:04:36.439Z,99.99
2018-01-03T10:05:36.430Z,99.99
2018-01-03T10:06:36.179Z,99.99
2018-01-03T10:07:36.420Z,99.99
2018-01-03T10:08:36.414Z,98.88
2018-01-03T10:09:36.409Z,98.55
2018-01-03T10:10:36.409Z,97.27
2018-01-03T10:11:36.150Z,95.56
2018-01-03T10:12:36.398Z,96.41
2018-01-03T10:13:36.385Z,96.31
2018-01-03T10:14:36.378Z,96.69
2018-01-03T10:15:36.379Z,96.79
2018-01-03T10:16:36.368Z,95.46
2018-01-03T10:17:36.109Z,96.69
2018-01-03T10:18:36.356Z,97.08
2018-01-03T10:19:36.348Z,97.45
2018-01-03T10:20:36.346Z,97.93
2018-01-03T10:21:36.336Z,97.74
2018-01-03T10:52:18.612Z,99.99
2018-01-03T10:53:18.305Z,99.99
2018-01-03T10:54:18.556Z,99.99
2018-01-03T10:55:18.303Z,99.99
2018-01-03T10:56:18.528Z,99.99
2018-01-03T10:57:18.247Z,99.99
2018-01-03T10:58:18.488Z,99.99
2018-01-03T10:59:18.483Z,99.99
2018-01-03T11:00:18.471Z,99.59
2018-01-03T11:01:18.214Z,98.64
2018-01-03T11:02:18.508Z,97.78
2018-01-03T11:03:18.447Z,98.07
2018-01-03T11:04:18.439Z,97.97
2018-01-03T11:05:18.429Z,96.65
2018-01-03T11:06:18.424Z,96.84
2018-01-03T11:07:18.164Z,95.32
2018-01-03T11:08:18.408Z,94.93
2018-01-03T11:09:18.162Z,94.08
2018-01-03T11:10:18.739Z,94.46
2018-01-03T11:11:18.392Z,93.7
2018-01-03T11:12:18.138Z,93.7
2018-01-03T11:13:18.386Z,93.7
2018-01-03T11:14:18.377Z,94.03
2018-01-03T11:15:18.362Z,93.18
2018-01-03T11:16:18.361Z,92.51
2018-01-03T11:17:18.347Z,92.51
2018-01-03T11:18:18.341Z,92.03
2018-01-03T11:19:18.337Z,91.28
2018-01-03T11:20:18.201Z,91.37
2018-01-03T11:21:18.076Z,91.37
2018-01-03T11:22:18.319Z,92.41
2018-01-03T11:23:18.312Z,92.41
2018-01-03T11:24:18.312Z,90.99
2018-01-03T11:25:18.465Z,89.47
2018-01-03T11:26:18.296Z,89.51
2018-01-03T11:27:18.309Z,89.7
2018-01-03T11:28:18.046Z,87.99
2018-01-03T11:29:18.042Z,88.09
2018-01-03T11:30:18.257Z,88.18
2018-01-03T11:31:18.314Z,88.37
2018-01-03T11:32:18.299Z,88.56
2018-01-03T11:33:18.259Z,89.8
2018-01-03T11:34:18.250Z,88.8
2018-01-03T11:35:18.416Z,87.66
2018-01-03T11:36:18.249Z,86.61
2018-01-03T11:37:18.233Z,86.66
2018-01-03T11:38:18.236Z,85.47
2018-01-03T11:39:18.223Z,84.85
2018-01-03T11:40:18.277Z,85.8
2018-01-03T11:41:18.261Z,83.52
2018-01-03T11:42:17.957Z,82.09
2018-01-03T11:43:17.957Z,82.19
2018-01-03T11:44:18.254Z,82.38
2018-01-03T11:45:18.206Z,82.67
2018-01-03T11:46:18.183Z,82.28
2018-01-03T11:47:17.927Z,81.05
2018-01-03T11:48:18.178Z,80.29
2018-01-03T11:49:18.171Z,80
2018-01-03T11:50:18.166Z,79.33
2018-01-03T11:51:17.908Z,79.14
2018-01-03T11:52:17.904Z,78
2018-01-03T11:53:18.149Z,78.1
2018-01-03T11:54:17.896Z,78.67
2018-01-03T11:55:18.212Z,78.77
2018-01-03T11:56:18.137Z,79.33
2018-01-03T11:57:18.132Z,79.62
2018-01-03T11:58:17.872Z,80.1
2018-01-03T11:59:18.122Z,79.62
2018-01-03T12:00:17.912Z,79.62
2018-01-03T12:01:18.118Z,80.76
2018-01-03T12:02:18.105Z,81.14
2018-01-03T12:03:18.098Z,81.05
2018-01-03T12:04:17.840Z,80.47
2018-01-03T12:05:18.096Z,79.81
2018-01-03T12:06:17.835Z,79.81
2018-01-03T12:07:17.827Z,79.52
2018-01-03T12:08:17.822Z,80.95
2018-01-03T12:09:18.118Z,80.86
2018-01-03T12:10:18.327Z,80.95
2018-01-03T12:11:18.067Z,81.47
2018-01-03T12:12:18.066Z,82
2018-01-03T12:13:18.069Z,82.38
2018-01-03T12:14:18.095Z,82.76
2018-01-03T12:15:18.248Z,82.57
2018-01-03T12:16:18.032Z,82.67
2018-01-03T12:17:18.027Z,83.33
2018-01-03T12:18:18.030Z,84.38
2018-01-03T12:19:18.019Z,82.38
2018-01-03T12:20:18.358Z,81.52
2018-01-03T12:21:17.759Z,81.71
2018-01-03T12:22:18.002Z,82.38
2018-01-03T12:23:17.744Z,82.28
2018-01-03T12:24:17.740Z,82.48
2018-01-03T12:25:19.437Z,82.48
2018-01-03T12:26:17.987Z,82.48
2018-01-03T12:27:17.982Z,82.76
2018-01-03T12:28:17.974Z,83.42
2018-01-03T12:29:17.976Z,82.76
2018-01-03T12:30:18.160Z,82
2018-01-03T12:31:17.966Z,81.43
2018-01-03T12:32:17.965Z,80.38
2018-01-03T12:33:17.704Z,79.52
2018-01-03T12:34:17.949Z,79.33
2018-01-03T12:35:18.038Z,79.19
2018-01-03T12:36:17.963Z,79.47
2018-01-03T12:37:17.947Z,77.95
2018-01-03T12:38:17.687Z,76.52
2018-01-03T12:39:17.921Z,76.52
2018-01-03T12:40:18.093Z,77
2018-01-03T12:41:17.655Z,77.09
2018-01-03T12:42:17.911Z,77.19
2018-01-03T12:43:17.660Z,77.19
2018-01-03T12:44:17.911Z,76.81
2018-01-03T12:45:17.818Z,76.52
2018-01-03T12:46:17.887Z,76.81
2018-01-03T12:47:17.885Z,76.9
2018-01-03T12:48:17.626Z,76.71
2018-01-03T12:49:17.918Z,75.95
2018-01-03T12:50:17.809Z,76.04
2018-01-03T12:51:17.867Z,76.14
2018-01-03T12:52:17.610Z,76.81
2018-01-03T12:53:17.612Z,76.81
2018-01-03T12:54:17.605Z,76.52
2018-01-03T12:55:17.933Z,76.04
2018-01-03T12:56:17.592Z,75.57
2018-01-03T12:57:17.850Z,76.04
2018-01-03T12:58:17.592Z,74.62
2018-01-03T12:59:17.834Z,74.43
2018-01-03T13:00:17.631Z,74.52
2018-01-03T13:01:17.571Z,74.99
2018-01-03T13:02:17.575Z,74.33
2018-01-03T13:03:17.815Z,74.14
2018-01-03T13:04:17.809Z,73.1
2018-01-03T13:05:17.805Z,72.52
2018-01-03T13:06:17.557Z,72.24
2018-01-03T13:07:17.794Z,72.52
2018-01-03T13:08:17.551Z,71.7
2018-01-03T13:09:17.793Z,71.19
2018-01-03T13:10:17.604Z,71
2018-01-03T13:11:17.779Z,70.81
2018-01-03T13:12:17.773Z,71.28
2018-01-03T13:13:17.518Z,71.76
2018-01-03T13:14:17.761Z,71.19
2018-01-03T13:15:17.863Z,71.19
2018-01-03T13:16:17.765Z,71
2018-01-03T13:17:17.751Z,71.19
2018-01-03T13:18:17.496Z,70.62
2018-01-03T13:19:17.741Z,70.81
2018-01-03T13:20:17.995Z,71
2018-01-03T13:21:17.738Z,71
2018-01-03T13:22:17.731Z,70.72
2018-01-03T13:23:17.723Z,69.76
2018-01-03T13:24:17.470Z,69.85
2018-01-03T13:25:17.829Z,69.57